Terminal Aerodrome Forecast
Issued by NWS Austin/San Antonio, TX

Current Version | Previous Version | Text Only | Print | Product List | Glossary Off
Versions: 1 2 3 4 5 6 7 8 9 10 11 12 13 14 15 16 17 18 19

000
FTUS44 KEWX 180540
TAFAUS
TAF
KAUS 180540Z 1806/1912 19012KT P6SM BKN011
     FM181100 23009KT 4SM BR OVC007
     FM181600 30012KT P6SM OVC015
     FM181800 34015G25KT P6SM SCT250
     FM182000 36022G32KT P6SM SCT250
     FM190300 36008KT P6SM SCT250=

USA.gov is the U.S. government's official web portal to all federal, state and local government web resources and services.